Архив погоды в Белогорке

Метеограмма Белогорка
Четверг, 24 Мая
Время местн. Темп Ветер Видим Явления Облачность нижн/средн/верх Атм. давл. Влжн Точка росы ВНГО R Сост. почвы Tg s
Напр Скр Прв ур.ст ур.м изм
21:00 +11.7° С,С-В 2 - 10 км - облачно с прояснениями 763 772 +0.2 46% +0.6° более 2.5 км 0 - - -
18:00 +15.7° С-В 5 - 10 км - облачно с прояснениями 763 771 +0.1 35% +0.4° более 2.5 км - - - -
15:00 +16.4° С,С-В 5 - 10 км - незначительная облачность 763 771 +0.7 41% +3.3° более 2.5 км - - - -
12:00 +17.2° С,С-В 5 - 10 км - переменная облачность 763 771 +1.1 52% +7.3° более 2.5 км - - - -
09:00 +14.4° С,С-В 4 - 10 км - переменная облачность 761 770 +1.1 75% +10.1° более 2.5 км 0 Сухая (без трещин) +9° -
06:00 +11.4° С,С-В 3 - 10 км - переменная облачность 760 768 +0.5 88% +9.5° более 2.5 км - - - -
03:00 +9.2° штиль 0 - 50 км - ясно 760 768 +0.5 92% +8° более 2.5 км - - - -
00:00 +8.5° штиль 0 - 50 км - переменная облачность 759 768 +0.7 97% +8° более 2.5 км - - - -
Среда, 23 Мая
Время местн. Темп Ветер Видим Явления Облачность нижн/средн/верх Атм. давл. Влжн Точка росы ВНГО R Сост. почвы Tg s
Напр Скр Прв ур.ст ур.м изм
21:00 +15.4° штиль 0 - 10 км - переменная облачность 759 767 +0.5 84% +12.7° 1 км 0 - - -
18:00 +21.6° З 2 - 10 км - облачно с прояснениями 758 766 -0.2 44% +8.7° 1 км - - - -
15:00 +20.2° З 3 - 10 км - облачно с прояснениями 758 766 +0.3 52% +10° 1 км - - - -
12:00 +17° З 3 - 10 км - преимущественно облачно 758 766 +0.4 63% +9.9° более 2.5 км - - - -
09:00 +12.4° Ю-З 2 - 10 км небо без изменений {дождь} преимущественно облачно 758 766 +0.5 89% +10.7° более 2.5 км 0.8 Влажная (без луж) +12° -
06:00 +11.1° Ю-З 2 - 4 км слабый непрерывный дождь преимущественно облачно 757 765 -0.2 94% +10.1° - - - - -
03:00 +12° Ю,Ю-З 2 - 50 км - преимущественно облачно 757 766 +0.1 82% +9.1° - - - - -
00:00 +13.6° Ю-З 4 - 50 км - преимущественно облачно 757 765 -0.4 70% +8.2° - - - - -
Вторник, 22 Мая
Время местн. Темп Ветер Видим Явления Облачность нижн/средн/верх Атм. давл. Влжн Точка росы ВНГО R Сост. почвы Tg s
Напр Скр Прв ур.ст ур.м изм
21:00 +17.9° Ю 3 - 10 км - преимущественно облачно 758 766 -0.5 47% +6.3° 1 км 0 - - -
18:00 +22.2° Ю 4 - 10 км - преимущественно облачно 758 766 -1.4 38% +7.4° - - - - -
15:00 +22.6° Ю 3 - 10 км - облачно с прояснениями 760 768 -1.4 35% +6.4° - - - - -
12:00 +22.8° Ю 3 - 10 км - переменная облачность 761 769 -1.1 31% +4.7° 1 км - - - -
09:00 +19.8° Ю 1 - 10 км - ясно 762 770 -0.7 49% +8.7° более 2.5 км 0 Сухая (без трещин) +8° -
06:00 +7.8° штиль 0 - 10 км - переменная облачность 763 771 -0.3 91% +6.4° - - - - -
03:00 +5.9° штиль 0 - 50 км - ясно 763 771 +0.1 96% +5.3° более 2.5 км - - - -
00:00 +8.2° штиль 0 - 50 км - ясно 763 771 +0.2 90% +6.6° более 2.5 км - - - -
Понедельник, 21 Мая
Время местн. Темп Ветер Видим Явления Облачность нижн/средн/верх Атм. давл. Влжн Точка росы ВНГО R Сост. почвы Tg s
Напр Скр Прв ур.ст ур.м изм
21:00 +18.3° С,С-В 2 - 10 км - ясно 763 771 +0.1 38% +3.9° более 2.5 км 0 - - -
18:00 +23.5° С,С-В 3 - 10 км - ясно 763 771 -0.8 32% +5.9° более 2.5 км - - - -